Time;durP1;ratioP1;P1;durP2;ratioP2;P2;SDS_P1;SDS_P2;PMS_P1;PMS_P2;Temp;Humidity;BMP_temperature;BMP_pressure;BME280_temperature;BME280_humidity;BME280_pressure;Samples;Min_cycle;Max_cycle;Signal;HPM_P1;HPM_P2
2022/05/12 00:00:35;;;;;;;11.27;5.20;;;16.10;99.90;;;;;;5059503;28;20861;-77
2022/05/12 00:03:01;;;;;;;9.00;5.15;;;16.20;99.90;;;;;;5065262;28;20397;-77
2022/05/12 00:05:26;;;;;;;11.98;5.53;;;16.20;99.90;;;;;;5062517;28;20941;-77
2022/05/12 00:07:52;;;;;;;9.55;5.68;;;16.20;99.90;;;;;;5071045;28;20951;-75
2022/05/12 00:10:20;;;;;;;18.65;6.80;;;16.20;99.90;;;;;;5072359;28;20423;-76
2022/05/12 00:12:47;;;;;;;12.68;5.95;;;16.20;99.90;;;;;;5074209;28;20465;-75
2022/05/12 00:15:17;;;;;;;14.02;6.28;;;16.20;99.90;;;;;;5050023;28;20922;-76
2022/05/12 00:17:44;;;;;;;11.85;5.75;;;16.30;99.90;;;;;;5057669;28;20389;-76
2022/05/12 00:20:11;;;;;;;12.60;5.55;;;16.30;99.90;;;;;;5058963;28;20412;-76
2022/05/12 00:22:37;;;;;;;10.93;5.70;;;16.20;99.90;;;;;;5056608;28;20446;-75
2022/05/12 00:25:03;;;;;;;12.07;6.47;;;16.10;99.90;;;;;;5059147;28;20794;-74
2022/05/12 00:27:28;;;;;;;13.45;5.60;;;16.10;99.90;;;;;;5057301;28;20401;-76
2022/05/12 00:29:54;;;;;;;17.52;5.80;;;16.00;99.90;;;;;;5065155;28;20747;-79
2022/05/12 00:32:19;;;;;;;12.70;5.63;;;16.10;99.10;;;;;;5068917;28;20423;-75
2022/05/12 00:34:45;;;;;;;15.63;6.27;;;16.10;97.90;;;;;;5073123;28;20391;-77
2022/05/12 00:37:10;;;;;;;14.17;6.10;;;16.00;97.70;;;;;;5064967;28;20411;-76
2022/05/12 00:39:36;;;;;;;12.27;6.30;;;15.90;97.40;;;;;;5058710;28;20805;-76
2022/05/12 00:42:02;;;;;;;18.48;7.55;;;15.90;98.40;;;;;;5070835;28;20484;-77
2022/05/12 00:44:28;;;;;;;24.55;8.80;;;15.90;99.90;;;;;;5067666;28;20457;-75
2022/05/12 00:46:53;;;;;;;16.88;7.40;;;16.10;99.90;;;;;;5057250;28;20417;-73
2022/05/12 00:49:25;;;;;;;12.82;6.90;;;16.10;98.90;;;;;;5058769;28;20408;-75
2022/05/12 00:52:08;;;;;;;12.00;6.60;;;16.10;99.40;;;;;;5058218;28;20397;-75
2022/05/12 00:54:40;;;;;;;11.02;6.00;;;16.00;95.30;;;;;;5057721;28;20480;-74
2022/05/12 00:57:08;;;;;;;16.17;7.13;;;15.80;99.10;;;;;;5057717;28;20387;-73
2022/05/12 00:59:35;;;;;;;17.92;7.85;;;15.70;99.90;;;;;;5055894;28;20515;-74
2022/05/12 01:02:04;;;;;;;19.75;6.97;;;15.60;99.70;;;;;;5063396;28;20399;-73
2022/05/12 01:04:31;;;;;;;13.55;6.75;;;15.50;96.70;;;;;;5062693;28;20393;-75
2022/05/12 01:06:58;;;;;;;14.88;7.00;;;15.40;87.90;;;;;;5059964;28;20783;-74
2022/05/12 01:09:26;;;;;;;18.83;7.90;;;15.30;89.90;;;;;;5052825;28;20681;-73
2022/05/12 01:11:52;;;;;;;15.25;8.50;;;15.10;92.30;;;;;;5054546;28;20981;-74
2022/05/12 01:14:18;;;;;;;17.50;8.35;;;15.10;94.80;;;;;;5068011;28;20404;-73
2022/05/12 01:16:55;;;;;;;18.67;9.40;;;15.00;90.90;;;;;;5058620;28;20443;-73
2022/05/12 01:19:45;;;;;;;19.67;10.10;;;15.00;90.10;;;;;;5053892;28;20758;-74
2022/05/12 01:22:21;;;;;;;23.55;10.60;;;15.00;91.70;;;;;;5051134;28;20393;-73
2022/05/12 01:24:46;;;;;;;22.42;10.07;;;14.90;91.70;;;;;;5052728;28;20400;-73
2022/05/12 01:27:22;;;;;;;19.30;9.20;;;14.80;93.90;;;;;;5063886;28;20477;-74
2022/05/12 01:29:47;;;;;;;19.83;11.20;;;14.80;91.40;;;;;;5060026;28;20532;-73
2022/05/12 01:32:13;;;;;;;21.10;11.60;;;14.60;96.00;;;;;;5059556;28;20425;-74
2022/05/12 01:34:38;;;;;;;18.50;10.30;;;14.60;99.40;;;;;;5059129;28;20393;-73
2022/05/12 01:37:04;;;;;;;23.92;10.13;;;14.70;95.70;;;;;;5055421;28;20404;-74
2022/05/12 01:39:30;;;;;;;19.40;9.15;;;14.70;97.10;;;;;;5054180;28;20743;-74
2022/05/12 01:41:56;;;;;;;13.25;7.82;;;14.70;93.30;;;;;;5065263;28;20388;-75
2022/05/12 01:44:21;;;;;;;12.07;6.80;;;14.60;92.50;;;;;;5059362;28;20447;-72
2022/05/12 01:46:48;;;;;;;16.60;7.40;;;14.50;93.30;;;;;;5054159;28;20400;-73
2022/05/12 01:49:14;;;;;;;18.15;7.95;;;14.40;94.20;;;;;;5062131;28;20757;-74
2022/05/12 01:51:39;;;;;;;12.80;7.80;;;14.40;96.20;;;;;;5063818;28;20486;-73
2022/05/12 01:54:05;;;;;;;12.47;7.37;;;14.30;97.90;;;;;;5060371;28;20493;-74
2022/05/12 01:56:31;;;;;;;14.63;7.70;;;14.30;96.10;;;;;;5057670;28;20775;-72
2022/05/12 02:01:32;;;;;;;14.48;7.45;;;14.10;96.50;;;;;;5051159;28;20444;-75
2022/05/12 02:03:57;;;;;;;13.77;7.90;;;14.00;89.60;;;;;;5055508;28;20389;-76
2022/05/12 02:06:23;;;;;;;13.20;6.10;;;14.00;92.20;;;;;;5060198;28;20454;-75
2022/05/12 02:08:48;;;;;;;12.63;6.50;;;13.90;86.50;;;;;;5054208;28;20444;-75
2022/05/12 02:11:14;;;;;;;15.83;7.23;;;13.90;85.50;;;;;;5054686;28;20900;-74
2022/05/12 02:13:39;;;;;;;12.95;7.28;;;13.80;88.20;;;;;;5053670;28;20416;-75
2022/05/12 02:16:05;;;;;;;13.73;6.43;;;13.70;86.10;;;;;;5053233;28;20429;-75
2022/05/12 02:18:30;;;;;;;12.80;7.20;;;13.70;84.60;;;;;;5053575;28;20396;-74
2022/05/12 02:20:58;;;;;;;13.00;6.60;;;13.70;82.30;;;;;;5053922;28;20409;-74
2022/05/12 02:23:23;;;;;;;10.50;7.50;;;13.70;84.70;;;;;;5053523;28;20401;-74
2022/05/12 02:25:50;;;;;;;17.58;6.90;;;13.60;85.60;;;;;;5053135;28;20390;-76
2022/05/12 02:28:16;;;;;;;12.57;6.80;;;13.60;87.00;;;;;;5067388;28;20469;-74
2022/05/12 02:30:42;;;;;;;13.30;7.30;;;13.50;86.70;;;;;;5068290;28;20395;-74
2022/05/12 02:33:08;;;;;;;12.17;7.03;;;13.40;86.50;;;;;;5053884;28;20399;-75
2022/05/12 02:35:35;;;;;;;12.82;7.03;;;13.40;85.30;;;;;;5053362;28;20394;-74
2022/05/12 02:38:01;;;;;;;12.75;7.15;;;13.40;86.20;;;;;;5057512;28;20902;-75
2022/05/12 02:40:28;;;;;;;14.50;7.18;;;13.30;84.90;;;;;;5064598;28;20507;-74
2022/05/12 02:42:54;;;;;;;17.63;7.07;;;13.30;82.70;;;;;;5053239;28;20750;-75
2022/05/12 02:45:20;;;;;;;14.82;7.30;;;13.20;84.30;;;;;;5053147;28;20412;-75
2022/05/12 02:47:46;;;;;;;15.60;7.82;;;13.20;85.40;;;;;;5052866;28;20411;-75
2022/05/12 02:50:14;;;;;;;14.38;8.07;;;13.20;84.30;;;;;;5053604;28;20819;-74
2022/05/12 02:52:40;;;;;;;11.68;8.15;;;13.20;83.70;;;;;;5052445;28;20393;-75
2022/05/12 02:55:06;;;;;;;12.47;7.83;;;13.10;84.60;;;;;;5053446;28;20409;-75
2022/05/12 02:57:32;;;;;;;14.18;7.32;;;13.10;84.70;;;;;;5052730;28;20459;-74
2022/05/12 02:59:57;;;;;;;10.15;6.45;;;13.00;85.30;;;;;;5053432;28;20444;-75
2022/05/12 03:02:23;;;;;;;15.43;7.70;;;13.00;86.20;;;;;;5052814;28;20421;-74
2022/05/12 03:04:48;;;;;;;13.23;7.30;;;13.00;83.50;;;;;;5064317;28;20470;-74
2022/05/12 03:07:14;;;;;;;12.95;6.72;;;13.00;81.90;;;;;;5059285;28;20916;-72
2022/05/12 03:09:40;;;;;;;12.60;6.70;;;12.90;82.70;;;;;;5052840;28;20433;-75
2022/05/12 03:12:06;;;;;;;16.67;6.60;;;12.90;83.80;;;;;;5053401;28;20428;-75
2022/05/12 03:14:32;;;;;;;15.10;7.50;;;12.80;85.80;;;;;;5057328;28;20453;-75
2022/05/12 03:16:57;;;;;;;17.83;8.20;;;12.80;86.60;;;;;;5066255;28;20449;-75
2022/05/12 03:19:23;;;;;;;17.13;8.70;;;12.80;87.90;;;;;;5064642;28;20482;-74
2022/05/12 03:21:49;;;;;;;16.27;9.20;;;12.80;89.90;;;;;;5063910;28;20417;-75
2022/05/12 03:24:16;;;;;;;16.58;8.52;;;12.80;90.20;;;;;;5065790;28;20539;-75
2022/05/12 03:26:41;;;;;;;16.45;7.40;;;12.50;93.00;;;;;;5067688;28;20399;-74
2022/05/12 03:29:07;;;;;;;16.35;7.43;;;12.50;93.60;;;;;;5059231;28;20401;-73
2022/05/12 03:31:33;;;;;;;14.85;7.40;;;12.30;92.90;;;;;;5051826;28;20746;-73
2022/05/12 03:34:00;;;;;;;15.43;6.85;;;12.30;96.20;;;;;;5053495;28;20395;-74
2022/05/12 03:36:26;;;;;;;16.38;6.82;;;12.60;92.00;;;;;;5046098;28;20393;-73
2022/05/12 03:38:51;;;;;;;10.70;6.10;;;12.70;88.20;;;;;;5061341;28;20748;-73
2022/05/12 03:41:17;;;;;;;19.20;7.00;;;12.80;87.00;;;;;;5070141;28;20385;-74
2022/05/12 03:46:26;;;;;;;15.68;6.53;;;12.80;88.60;;;;;;5050594;28;20388;-75
2022/05/12 03:48:52;;;;;;;15.40;6.93;;;12.70;90.20;;;;;;5055386;28;20476;-74
2022/05/12 03:51:18;;;;;;;16.17;7.83;;;12.80;89.80;;;;;;5057342;28;20453;-75
2022/05/12 03:53:43;;;;;;;15.97;7.60;;;12.80;86.60;;;;;;5056837;28;20419;-75
2022/05/12 03:56:09;;;;;;;17.87;7.80;;;12.80;86.60;;;;;;5057559;28;20429;-74
2022/05/12 03:58:36;;;;;;;18.33;8.13;;;12.80;85.30;;;;;;5056453;28;20385;-74
2022/05/12 04:01:04;;;;;;;18.08;7.78;;;12.70;86.20;;;;;;5066924;28;20403;-75
2022/05/12 04:03:29;;;;;;;17.23;7.70;;;12.60;86.40;;;;;;5071553;28;20890;-74
2022/05/12 04:05:59;;;;;;;14.93;7.20;;;12.60;87.50;;;;;;5071361;28;20397;-74
2022/05/12 04:08:25;;;;;;;15.05;7.40;;;12.70;88.00;;;;;;5070435;28;20486;-73
2022/05/12 04:10:51;;;;;;;18.13;7.70;;;12.70;88.80;;;;;;5070378;28;20729;-75
2022/05/12 04:13:17;;;;;;;17.05;8.13;;;12.60;89.30;;;;;;5069592;28;20393;-74
2022/05/12 04:15:43;;;;;;;17.47;7.60;;;12.40;92.00;;;;;;5071084;28;20399;-74
2022/05/12 04:18:09;;;;;;;17.80;7.05;;;12.60;87.40;;;;;;5069396;28;20387;-74
2022/05/12 04:20:36;;;;;;;14.93;7.40;;;12.60;86.40;;;;;;5060636;28;20446;-73
2022/05/12 04:23:03;;;;;;;14.90;7.40;;;12.60;89.30;;;;;;5053553;28;20417;-73
2022/05/12 04:25:28;;;;;;;14.80;7.55;;;12.70;87.70;;;;;;5051079;28;20391;-74
2022/05/12 04:27:54;;;;;;;19.40;7.60;;;12.70;87.60;;;;;;5070407;28;20474;-74
2022/05/12 04:30:24;;;;;;;12.70;6.17;;;12.70;90.70;;;;;;5067829;28;20402;-74
2022/05/12 04:32:51;;;;;;;10.90;5.70;;;12.90;85.10;;;;;;5063696;28;20445;-74
2022/05/12 04:35:17;;;;;;;8.98;5.32;;;13.20;83.50;;;;;;5068951;28;20389;-74
2022/05/12 04:37:48;;;;;;;10.32;5.75;;;13.00;84.30;;;;;;5069126;28;20396;-75
2022/05/12 04:40:24;;;;;;;12.20;6.22;;;12.90;84.60;;;;;;5068141;28;20494;-75
2022/05/12 04:42:51;;;;;;;14.67;6.60;;;13.10;82.60;;;;;;5069966;28;20387;-74
2022/05/12 04:45:19;;;;;;;15.43;6.60;;;13.10;80.90;;;;;;5067786;28;20467;-74
2022/05/12 04:47:45;;;;;;;12.13;5.95;;;13.10;79.90;;;;;;5069341;28;20388;-74
2022/05/12 04:50:17;;;;;;;15.65;5.60;;;13.20;73.90;;;;;;5067710;28;20395;-74
2022/05/12 04:52:43;;;;;;;17.30;6.93;;;13.10;73.90;;;;;;5070776;28;20476;-75
2022/05/12 04:55:10;;;;;;;13.48;6.45;;;13.00;76.00;;;;;;5068532;28;20481;-75
2022/05/12 04:57:41;;;;;;;17.70;5.90;;;13.00;76.10;;;;;;5067769;28;20408;-74
2022/05/12 05:00:10;;;;;;;15.70;6.00;;;13.20;73.70;;;;;;5067576;28;20399;-73
2022/05/12 05:02:35;;;;;;;12.25;5.50;;;13.20;73.30;;;;;;5067466;28;20400;-74
2022/05/12 05:05:01;;;;;;;15.52;6.38;;;13.30;71.90;;;;;;5068269;28;20857;-75
2022/05/12 05:07:27;;;;;;;14.35;5.85;;;13.40;69.80;;;;;;5069185;28;20399;-75
2022/05/12 05:09:53;;;;;;;11.88;6.65;;;13.60;69.50;;;;;;5063751;28;20404;-74
2022/05/12 05:12:19;;;;;;;11.77;6.30;;;13.50;70.40;;;;;;5055904;28;20453;-75
2022/05/12 05:14:45;;;;;;;10.70;5.60;;;13.40;72.70;;;;;;5055606;28;20390;-75
2022/05/12 05:17:11;;;;;;;16.05;5.15;;;13.40;72.50;;;;;;5067651;28;20486;-74
2022/05/12 05:19:37;;;;;;;12.27;5.82;;;13.60;71.90;;;;;;5060965;28;20578;-75
2022/05/12 05:22:02;;;;;;;16.17;5.95;;;13.60;70.40;;;;;;5063060;28;20388;-74
2022/05/12 05:24:29;;;;;;;21.02;7.07;;;13.60;71.60;;;;;;5066503;28;20405;-76
2022/05/12 05:26:55;;;;;;;13.02;5.93;;;13.60;70.20;;;;;;5053974;28;20397;-73
2022/05/12 05:29:20;;;;;;;12.75;5.90;;;13.90;66.60;;;;;;5055259;28;20395;-76
2022/05/12 05:31:46;;;;;;;13.63;5.60;;;13.90;66.50;;;;;;5058449;28;20449;-73
2022/05/12 05:34:12;;;;;;;21.63;6.40;;;14.00;65.30;;;;;;5066309;28;20771;-73
2022/05/12 05:36:42;;;;;;;13.10;5.50;;;14.00;63.10;;;;;;5071261;28;20761;-75
2022/05/12 05:39:08;;;;;;;12.50;5.30;;;14.10;61.00;;;;;;5070892;28;20400;-75
2022/05/12 05:41:35;;;;;;;17.27;5.47;;;14.00;61.20;;;;;;5071028;28;20406;-77
2022/05/12 05:44:01;;;;;;;15.47;5.90;;;14.20;62.80;;;;;;5077784;28;20384;-77
2022/05/12 05:46:27;;;;;;;17.50;5.28;;;14.20;58.30;;;;;;5070203;28;21002;-76
2022/05/12 05:48:53;;;;;;;18.88;6.30;;;14.30;57.50;;;;;;5058909;28;20382;-77
2022/05/12 05:54:02;;;;;;;14.68;4.90;;;14.70;56.30;;;;;;5072862;28;20398;-76
2022/05/12 05:56:28;;;;;;;11.63;5.13;;;14.70;54.60;;;;;;5066137;28;20419;-73
2022/05/12 05:58:54;;;;;;;13.13;5.80;;;14.60;56.10;;;;;;5065750;28;20387;-77
2022/05/12 06:01:20;;;;;;;14.30;5.82;;;14.60;55.30;;;;;;5064791;28;20508;-73
2022/05/12 06:03:46;;;;;;;16.47;5.70;;;14.60;55.60;;;;;;5058666;28;20392;-73
2022/05/12 06:06:12;;;;;;;14.67;5.20;;;14.60;51.30;;;;;;5054519;28;20397;-74
2022/05/12 06:08:38;;;;;;;13.80;5.05;;;14.60;52.30;;;;;;5054906;28;20455;-73
2022/05/12 06:11:04;;;;;;;12.65;4.90;;;15.00;52.00;;;;;;5054664;28;20420;-74
2022/05/12 06:13:34;;;;;;;11.15;4.82;;;15.00;50.10;;;;;;5053041;28;20408;-73
2022/05/12 06:16:01;;;;;;;14.88;4.90;;;15.10;47.10;;;;;;5051025;28;20424;-74
2022/05/12 06:18:26;;;;;;;13.48;5.55;;;15.10;47.10;;;;;;5053539;28;20390;-73
2022/05/12 06:20:53;;;;;;;16.00;5.90;;;15.20;48.40;;;;;;5052278;28;20409;-74
2022/05/12 06:23:18;;;;;;;15.95;5.95;;;15.20;47.20;;;;;;5053166;28;20463;-75
2022/05/12 06:25:44;;;;;;;18.17;6.38;;;15.30;45.50;;;;;;5053276;28;20397;-74
2022/05/12 06:28:10;;;;;;;22.83;6.80;;;15.30;46.20;;;;;;5050765;28;20409;-73
2022/05/12 06:30:37;;;;;;;25.10;6.70;;;15.40;45.60;;;;;;5052444;28;20772;-73
2022/05/12 06:33:03;;;;;;;13.25;6.50;;;15.40;45.60;;;;;;5051438;28;20488;-73
2022/05/12 06:35:29;;;;;;;17.38;7.50;;;15.50;45.40;;;;;;5052100;28;20395;-73
2022/05/12 06:37:55;;;;;;;18.10;6.90;;;15.50;46.20;;;;;;5054058;28;20397;-74
2022/05/12 06:40:22;;;;;;;20.17;7.20;;;15.50;46.10;;;;;;5053385;28;20407;-76
2022/05/12 06:42:47;;;;;;;18.50;7.05;;;15.60;46.00;;;;;;5050969;28;20397;-74
2022/05/12 06:45:16;;;;;;;21.27;8.07;;;15.70;46.60;;;;;;5053291;28;20408;-74
2022/05/12 06:47:52;;;;;;;18.95;7.93;;;15.70;46.70;;;;;;5050920;28;20389;-74
2022/05/12 06:50:22;;;;;;;20.15;8.23;;;15.70;45.60;;;;;;5052883;28;20896;-74
2022/05/12 06:52:48;;;;;;;19.95;8.52;;;15.80;46.60;;;;;;5063124;28;20433;-72
2022/05/12 06:55:14;;;;;;;20.67;8.10;;;15.70;46.60;;;;;;5050228;28;20487;-73
2022/05/12 06:57:41;;;;;;;14.60;6.90;;;15.80;45.10;;;;;;5051564;28;20874;-73
2022/05/12 07:00:08;;;;;;;15.35;6.70;;;15.80;42.70;;;;;;5052098;28;20409;-74
2022/05/12 07:02:35;;;;;;;16.25;7.30;;;15.80;41.90;;;;;;5052349;28;20389;-74
2022/05/12 07:05:01;;;;;;;24.52;7.93;;;15.90;41.50;;;;;;5050039;28;20393;-72
2022/05/12 07:07:27;;;;;;;18.10;6.75;;;15.80;41.30;;;;;;5052826;28;20398;-74
2022/05/12 07:09:54;;;;;;;14.82;5.85;;;15.90;40.30;;;;;;5051564;28;20463;-74
2022/05/12 07:12:21;;;;;;;14.45;6.38;;;15.90;40.30;;;;;;5051587;28;20443;-73
2022/05/12 07:14:46;;;;;;;13.98;6.88;;;16.00;39.20;;;;;;5050308;28;20500;-74
2022/05/12 07:17:12;;;;;;;16.17;7.53;;;16.00;39.70;;;;;;5051179;28;20424;-73
2022/05/12 07:19:37;;;;;;;19.15;7.35;;;16.20;38.70;;;;;;5051111;28;20415;-73
2022/05/12 07:27:31;;;;;;;14.97;7.10;;;16.90;34.90;;;;;;5052692;28;20833;-72
2022/05/12 07:29:57;;;;;;;13.13;6.90;;;16.90;32.60;;;;;;5051007;28;20401;-74
2022/05/12 07:32:23;;;;;;;14.45;6.38;;;17.00;34.20;;;;;;5052134;28;20393;-74
2022/05/12 07:34:49;;;;;;;15.57;6.43;;;17.00;31.20;;;;;;5052073;28;20780;-73
2022/05/12 07:37:15;;;;;;;17.33;6.87;;;17.20;30.70;;;;;;5050864;28;20430;-74
2022/05/12 07:39:40;;;;;;;10.70;6.50;;;17.20;31.10;;;;;;5051241;28;20700;-74
2022/05/12 07:42:06;;;;;;;15.90;6.10;;;17.40;30.70;;;;;;5050861;28;20554;-74
2022/05/12 07:44:34;;;;;;;10.77;5.10;;;17.70;28.70;;;;;;5043934;28;20410;-73
2022/05/12 07:47:05;;;;;;;14.38;5.65;;;18.00;27.50;;;;;;5050978;28;20396;-73
2022/05/12 07:49:35;;;;;;;10.10;5.82;;;18.30;27.00;;;;;;5054980;28;20397;-74
2022/05/12 07:52:01;;;;;;;14.75;7.53;;;18.60;23.50;;;;;;5067258;28;20394;-73
2022/05/12 07:54:26;;;;;;;12.68;7.20;;;18.70;24.60;;;;;;5057727;28;20389;-75
2022/05/12 07:56:52;;;;;;;16.80;8.00;;;18.70;24.60;;;;;;5060953;28;20426;-75
2022/05/12 07:59:18;;;;;;;17.13;7.90;;;18.60;24.40;;;;;;5058685;28;20414;-73
2022/05/12 08:01:43;;;;;;;12.83;7.50;;;18.60;23.70;;;;;;5052078;28;20584;-73
2022/05/12 08:04:09;;;;;;;13.07;7.60;;;18.40;24.50;;;;;;5057074;28;20723;-74
2022/05/12 08:06:35;;;;;;;11.23;5.80;;;18.20;24.00;;;;;;5053671;28;20387;-76
2022/05/12 08:09:01;;;;;;;11.27;6.80;;;18.10;24.40;;;;;;5053124;28;20393;-75
2022/05/12 08:11:27;;;;;;;14.63;7.78;;;17.90;25.90;;;;;;5053432;28;20437;-75
2022/05/12 08:13:53;;;;;;;22.77;8.85;;;17.90;26.10;;;;;;5050748;28;20428;-75
2022/05/12 08:16:21;;;;;;;17.15;8.73;;;17.90;26.50;;;;;;5050037;28;20474;-75
2022/05/12 08:18:49;;;;;;;18.27;9.45;;;17.80;26.20;;;;;;5050785;28;20439;-75
2022/05/12 08:21:19;;;;;;;16.60;9.20;;;17.70;26.60;;;;;;5051758;28;20416;-75
2022/05/12 08:23:47;;;;;;;15.70;9.20;;;17.60;27.20;;;;;;5064970;28;20888;-75
2022/05/12 08:26:12;;;;;;;16.67;9.45;;;18.00;27.50;;;;;;5054836;28;20450;-75
2022/05/12 08:28:38;;;;;;;15.43;9.40;;;18.30;27.60;;;;;;5055174;28;20396;-76
2022/05/12 08:31:04;;;;;;;16.83;8.85;;;18.30;26.00;;;;;;5053915;28;20392;-76
2022/05/12 08:33:30;;;;;;;14.02;9.30;;;18.10;26.50;;;;;;5053497;28;20391;-76
2022/05/12 08:35:56;;;;;;;12.82;8.73;;;17.90;27.20;;;;;;5054715;28;20397;-75
2022/05/12 08:38:21;;;;;;;15.85;8.60;;;18.00;26.70;;;;;;5055809;28;20928;-75
2022/05/12 08:40:55;;;;;;;16.23;8.13;;;18.10;25.60;;;;;;5054521;28;20458;-75
2022/05/12 08:43:31;;;;;;;16.10;8.60;;;18.30;25.50;;;;;;5056952;28;20480;-76
2022/05/12 08:46:03;;;;;;;15.05;8.90;;;18.60;25.30;;;;;;5053287;28;20397;-76
2022/05/12 08:48:28;;;;;;;14.77;8.73;;;18.80;23.40;;;;;;5054462;28;20495;-76
2022/05/12 08:50:55;;;;;;;15.20;8.17;;;18.80;23.60;;;;;;5053641;28;20396;-76
2022/05/12 08:53:25;;;;;;;15.90;8.45;;;18.90;23.50;;;;;;5055329;28;20397;-76
2022/05/12 08:55:59;;;;;;;14.52;7.70;;;19.00;22.10;;;;;;5054574;28;20894;-75
2022/05/12 08:58:40;;;;;;;12.10;7.03;;;19.20;22.30;;;;;;5058897;28;20508;-76
2022/05/12 09:01:39;;;;;;;11.60;6.25;;;19.50;20.90;;;;;;5053272;28;20456;-76
2022/05/12 09:04:20;;;;;;;15.25;8.10;;;19.50;20.60;;;;;;5061873;28;20412;-76
2022/05/12 09:07:04;;;;;;;13.85;7.35;;;19.40;21.50;;;;;;5061313;28;20882;-76
2022/05/12 09:10:05;;;;;;;12.88;7.22;;;19.40;22.00;;;;;;5056084;28;20414;-75
2022/05/12 09:12:53;;;;;;;13.55;7.85;;;19.50;19.60;;;;;;5066043;28;20400;-74
2022/05/12 09:15:23;;;;;;;11.70;7.82;;;19.50;19.70;;;;;;5069381;28;20397;-75
2022/05/12 09:18:00;;;;;;;17.10;7.97;;;19.50;20.20;;;;;;5067671;28;20460;-76
2022/05/12 09:20:30;;;;;;;13.30;6.63;;;19.60;20.10;;;;;;5067652;28;20424;-76
2022/05/12 09:22:55;;;;;;;10.68;6.15;;;19.60;18.70;;;;;;5068791;28;20684;-75
2022/05/12 09:25:36;;;;;;;9.27;6.50;;;19.50;18.40;;;;;;5069610;28;20543;-75
2022/05/12 09:28:40;;;;;;;12.38;7.20;;;19.20;18.40;;;;;;5068166;28;20402;-75
2022/05/12 09:31:12;;;;;;;10.75;6.43;;;18.90;19.70;;;;;;5007635;28;20493;-75
2022/05/12 09:33:38;;;;;;;13.10;6.82;;;19.00;20.40;;;;;;5053934;28;20452;-75
2022/05/12 09:36:14;;;;;;;14.35;6.70;;;19.00;19.60;;;;;;5058852;28;20415;-75
2022/05/12 09:38:45;;;;;;;9.50;5.90;;;18.90;19.90;;;;;;5059409;28;20824;-76
2022/05/12 09:41:23;;;;;;;12.18;6.78;;;18.90;20.00;;;;;;5059220;28;20476;-74
2022/05/12 09:43:53;;;;;;;11.32;5.97;;;19.00;18.90;;;;;;5065470;28;20447;-76
2022/05/12 09:46:29;;;;;;;8.85;5.60;;;19.20;19.30;;;;;;5053655;28;20405;-75
2022/05/12 09:49:14;;;;;;;7.90;6.00;;;19.70;19.30;;;;;;5052613;28;20932;-75
2022/05/12 09:51:40;;;;;;;9.57;5.43;;;20.00;17.80;;;;;;5053829;28;20576;-75
2022/05/12 09:54:28;;;;;;;12.57;7.00;;;20.10;17.90;;;;;;5060039;28;20421;-79
2022/05/12 09:57:26;;;;;;;10.32;5.80;;;20.30;16.50;;;;;;5055769;28;20882;-76
2022/05/12 09:59:58;;;;;;;9.00;5.03;;;20.30;14.80;;;;;;5054645;28;20767;-75
2022/05/12 10:08:24;;;;;;;12.65;5.70;;;20.80;16.20;;;;;;5050707;28;20388;-73
2022/05/12 10:11:00;;;;;;;9.80;5.63;;;21.00;15.80;;;;;;5053469;28;20409;-74
2022/05/12 10:13:37;;;;;;;9.13;5.43;;;21.00;16.10;;;;;;5054628;28;20416;-74
2022/05/12 10:16:05;;;;;;;7.28;5.18;;;20.60;16.10;;;;;;5051898;28;20389;-74
2022/05/12 10:18:37;;;;;;;9.97;4.20;;;20.80;16.00;;;;;;5053539;28;20533;-75
2022/05/12 10:21:29;;;;;;;9.20;3.70;;;21.00;13.10;;;;;;5050927;28;20413;-75
2022/05/12 10:24:07;;;;;;;6.38;3.78;;;20.80;12.90;;;;;;5050846;28;20482;-74
2022/05/12 10:26:45;;;;;;;9.05;5.68;;;20.60;12.70;;;;;;5052823;28;20749;-75
2022/05/12 10:29:38;;;;;;;9.07;4.43;;;20.30;15.50;;;;;;5049647;28;20394;-74
2022/05/12 10:32:37;;;;;;;6.00;3.83;;;19.90;14.10;;;;;;5053178;28;20702;-74
2022/05/12 10:35:13;;;;;;;7.82;3.78;;;20.00;14.10;;;;;;5053024;28;20393;-74
2022/05/12 10:37:58;;;;;;;6.72;4.60;;;20.10;15.10;;;;;;5053436;28;20484;-74
2022/05/12 10:40:32;;;;;;;10.07;4.40;;;20.10;15.60;;;;;;5050365;28;20447;-74
2022/05/12 10:43:17;;;;;;;8.82;5.28;;;20.00;16.00;;;;;;5049561;28;20909;-76
2022/05/12 10:46:20;;;;;;;10.90;5.70;;;19.90;17.20;;;;;;5052847;28;20425;-74
2022/05/12 10:48:49;;;;;;;7.20;5.50;;;20.10;17.30;;;;;;5065706;28;20401;-76
2022/05/12 10:51:34;;;;;;;11.60;5.47;;;20.20;16.00;;;;;;5049703;28;20428;-76
2022/05/12 10:54:28;;;;;;;7.00;4.57;;;20.20;16.80;;;;;;5051520;28;20409;-76
2022/05/12 10:57:22;;;;;;;6.93;3.30;;;20.40;14.10;;;;;;5075300;28;20401;-76
2022/05/12 10:59:56;;;;;;;4.50;3.28;;;20.00;13.30;;;;;;5067151;28;20409;-77
2022/05/12 11:02:47;;;;;;;6.13;3.10;;;20.20;13.10;;;;;;5061803;28;20439;-76
2022/05/12 11:05:22;;;;;;;7.00;3.90;;;20.10;13.40;;;;;;5055841;28;20435;-76
2022/05/12 11:08:04;;;;;;;8.48;4.20;;;20.20;13.70;;;;;;5063885;28;20925;-76
2022/05/12 11:10:36;;;;;;;9.30;4.22;;;20.30;13.90;;;;;;5066071;28;20403;-76
2022/05/12 11:13:10;;;;;;;8.38;4.90;;;20.30;14.40;;;;;;5065906;28;20384;-76
2022/05/12 11:16:01;;;;;;;7.20;5.05;;;20.30;14.90;;;;;;5044026;28;20405;-75
2022/05/12 11:18:58;;;;;;;7.15;4.88;;;20.10;15.20;;;;;;5064824;28;20400;-75
2022/05/12 11:21:28;;;;;;;6.22;4.50;;;20.20;15.00;;;;;;5061196;28;20491;-75
2022/05/12 11:24:21;;;;;;;10.15;4.78;;;20.50;14.70;;;;;;5060444;28;20379;-75
2022/05/12 11:27:00;;;;;;;7.60;5.00;;;20.50;14.80;;;;;;5065856;28;20392;-76
2022/05/12 11:30:02;;;;;;;16.63;4.90;;;20.70;13.90;;;;;;5056997;28;20385;-75
2022/05/12 11:33:09;;;;;;;7.35;4.90;;;20.90;14.30;;;;;;5064558;28;20382;-75
2022/05/12 11:35:43;;;;;;;6.93;4.90;;;21.00;13.90;;;;;;5066458;28;20451;-76
2022/05/12 11:38:11;;;;;;;9.95;4.35;;;21.10;13.70;;;;;;5052058;28;20530;-78
2022/05/12 11:40:44;;;;;;;8.20;4.47;;;21.40;14.00;;;;;;5052659;28;20578;-78
2022/05/12 11:46:49;;;;;;;9.95;4.75;;;20.70;14.10;;;;;;5063258;28;20753;-75
2022/05/12 11:50:08;;;;;;;7.75;4.57;;;20.90;14.40;;;;;;5052899;28;20397;-73
2022/05/12 11:52:58;;;;;;;8.13;4.10;;;21.30;13.10;;;;;;5038399;28;20433;-76
2022/05/12 11:55:30;;;;;;;10.80;3.70;;;21.50;11.70;;;;;;5061744;28;20402;-76
2022/05/12 11:58:01;;;;;;;5.13;3.08;;;21.50;12.70;;;;;;5055870;28;20389;-75
2022/05/12 12:00:35;;;;;;;7.90;3.40;;;21.60;11.40;;;;;;5065531;28;20409;-75
2022/05/12 12:03:23;;;;;;;5.50;3.17;;;21.60;11.20;;;;;;5059728;28;20392;-75
2022/05/12 12:05:49;;;;;;;10.60;4.05;;;21.50;11.10;;;;;;5052754;28;20397;-76
2022/05/12 12:08:43;;;;;;;10.30;4.20;;;21.60;10.90;;;;;;5056878;28;20466;-78
2022/05/12 12:11:15;;;;;;;15.60;6.10;;;21.80;11.40;;;;;;5052592;28;20898;-75
2022/05/12 12:13:45;;;;;;;8.65;3.97;;;21.40;12.90;;;;;;5052496;28;20695;-75
2022/05/12 12:16:19;;;;;;;7.75;4.15;;;21.30;11.90;;;;;;5056863;28;20401;-76
2022/05/12 12:18:58;;;;;;;5.97;3.80;;;21.20;12.90;;;;;;5050618;28;20396;-77
2022/05/12 12:21:36;;;;;;;11.18;3.92;;;21.40;12.60;;;;;;5057372;28;20391;-75
2022/05/12 12:24:20;;;;;;;8.10;4.50;;;21.90;11.40;;;;;;5053570;28;20385;-75
2022/05/12 12:26:54;;;;;;;8.35;3.40;;;22.50;9.50;;;;;;5056214;28;20944;-76
2022/05/12 12:29:50;;;;;;;6.57;3.30;;;22.90;8.60;;;;;;5056819;28;20891;-75
2022/05/12 12:32:29;;;;;;;7.45;3.30;;;22.80;8.90;;;;;;5056094;28;20911;-76
2022/05/12 12:35:03;;;;;;;7.57;3.10;;;22.50;8.70;;;;;;5055314;28;20397;-75
2022/05/12 12:37:48;;;;;;;13.93;3.78;;;21.70;8.00;;;;;;5054502;28;20392;-76
2022/05/12 12:40:32;;;;;;;6.60;3.40;;;21.40;10.10;;;;;;5060790;28;20415;-76
2022/05/12 12:43:14;;;;;;;6.85;3.05;;;21.70;9.70;;;;;;5061993;28;20387;-76
2022/05/12 12:45:50;;;;;;;8.65;3.08;;;21.90;9.10;;;;;;5069782;28;20396;-75
2022/05/12 12:48:21;;;;;;;6.22;3.13;;;21.90;9.20;;;;;;5068083;28;20388;-75
2022/05/12 12:50:51;;;;;;;7.90;2.85;;;22.00;9.90;;;;;;5070263;28;20486;-75
2022/05/12 12:56:30;;;;;;;5.25;2.63;;;23.00;7.50;;;;;;5069765;28;20407;-76
2022/05/12 12:58:57;;;;;;;5.93;2.60;;;23.30;7.00;;;;;;5058808;28;20412;-76
2022/05/12 13:01:23;;;;;;;5.05;2.50;;;23.30;5.70;;;;;;5054531;28;20417;-76
2022/05/12 13:03:52;;;;;;;4.23;2.50;;;23.30;4.10;;;;;;5054695;28;20870;-76
2022/05/12 13:06:28;;;;;;;7.20;2.50;;;23.40;3.90;;;;;;5055747;28;20395;-76
2022/05/12 13:09:05;;;;;;;5.80;2.40;;;23.60;4.60;;;;;;5054400;28;20447;-76
2022/05/12 13:11:31;;;;;;;8.27;2.45;;;23.30;5.80;;;;;;5055509;28;20468;-75
2022/05/12 13:13:56;;;;;;;5.95;2.70;;;23.50;6.50;;;;;;5053039;28;20504;-75
2022/05/12 13:16:25;;;;;;;7.27;2.57;;;23.40;5.00;;;;;;5055176;28;20894;-75
2022/05/12 13:18:53;;;;;;;4.95;2.30;;;23.70;4.30;;;;;;5060256;28;20405;-76
2022/05/12 13:21:45;;;;;;;7.72;2.33;;;24.10;4.40;;;;;;5052978;28;20773;-76
2022/05/12 13:24:22;;;;;;;3.72;2.00;;;24.30;2.10;;;;;;5045664;28;20451;-76